sensor_id;sensor_type;location;lat;lon;timestamp;pressure;altitude;pressure_sealevel;temperature;humidity
71126;BME280;58785;55.566;38.058;2023-02-12T00:00:08;98815.84;;;1.77;75.74
71126;BME280;58785;55.566;38.058;2023-02-12T00:02:34;98819.31;;;1.78;76.04
71126;BME280;58785;55.566;38.058;2023-02-12T00:05:00;98805.47;;;1.76;75.96
71126;BME280;58785;55.566;38.058;2023-02-12T00:07:29;98805.94;;;1.81;75.76
71126;BME280;58785;55.566;38.058;2023-02-12T00:09:55;98810.56;;;1.88;75.83
71126;BME280;58785;55.566;38.058;2023-02-12T00:12:21;98806.53;;;1.84;75.34
71126;BME280;58785;55.566;38.058;2023-02-12T00:14:46;98813.19;;;1.88;75.27
71126;BME280;58785;55.566;38.058;2023-02-12T00:17:12;98822.25;;;1.95;75.11
71126;BME280;58785;55.566;38.058;2023-02-12T00:19:38;98822.81;;;1.99;75.59
71126;BME280;58785;55.566;38.058;2023-02-12T00:22:03;98820.09;;;2.00;75.24
71126;BME280;58785;55.566;38.058;2023-02-12T00:24:29;98804.56;;;1.97;75.41
71126;BME280;58785;55.566;38.058;2023-02-12T00:26:54;98817.66;;;2.09;75.42
71126;BME280;58785;55.566;38.058;2023-02-12T00:29:20;98827.09;;;2.11;75.53
71126;BME280;58785;55.566;38.058;2023-02-12T00:31:45;98826.28;;;2.11;75.39
71126;BME280;58785;55.566;38.058;2023-02-12T00:34:11;98834.16;;;2.11;75.03
71126;BME280;58785;55.566;38.058;2023-02-12T00:36:37;98823.16;;;2.06;74.92
71126;BME280;58785;55.566;38.058;2023-02-12T00:39:03;98835.34;;;2.07;75.37
71126;BME280;58785;55.566;38.058;2023-02-12T00:41:29;98831.88;;;2.06;75.03
71126;BME280;58785;55.566;38.058;2023-02-12T00:43:55;98838.81;;;2.07;75.24
71126;BME280;58785;55.566;38.058;2023-02-12T00:46:21;98840.88;;;2.04;75.24
71126;BME280;58785;55.566;38.058;2023-02-12T00:48:47;98839.44;;;1.99;75.51
71126;BME280;58785;55.566;38.058;2023-02-12T00:51:13;98851.38;;;2.04;75.41
71126;BME280;58785;55.566;38.058;2023-02-12T00:53:39;98858.09;;;1.96;75.65
71126;BME280;58785;55.566;38.058;2023-02-12T00:56:05;98862.41;;;1.86;75.56
71126;BME280;58785;55.566;38.058;2023-02-12T00:58:31;98873.31;;;1.82;76.03
71126;BME280;58785;55.566;38.058;2023-02-12T01:00:56;98880.97;;;1.73;76.05
71126;BME280;58785;55.566;38.058;2023-02-12T01:03:23;98886.38;;;1.61;76.55
71126;BME280;58785;55.566;38.058;2023-02-12T01:05:48;98894.13;;;1.40;76.95
71126;BME280;58785;55.566;38.058;2023-02-12T01:08:15;98897.09;;;1.24;77.52
71126;BME280;58785;55.566;38.058;2023-02-12T01:10:42;98908.19;;;1.17;77.71
71126;BME280;58785;55.566;38.058;2023-02-12T01:13:13;98917.25;;;1.01;77.75
71126;BME280;58785;55.566;38.058;2023-02-12T01:15:39;98913.28;;;0.84;78.31
71126;BME280;58785;55.566;38.058;2023-02-12T01:18:05;98910.00;;;0.70;78.29
71126;BME280;58785;55.566;38.058;2023-02-12T01:20:31;98905.81;;;0.67;78.15
71126;BME280;58785;55.566;38.058;2023-02-12T01:22:56;98900.69;;;0.66;77.78
71126;BME280;58785;55.566;38.058;2023-02-12T01:25:22;98931.34;;;0.65;77.88
71126;BME280;58785;55.566;38.058;2023-02-12T01:27:48;98918.16;;;0.43;78.13
71126;BME280;58785;55.566;38.058;2023-02-12T01:30:15;98945.81;;;0.47;78.36
71126;BME280;58785;55.566;38.058;2023-02-12T01:32:40;98956.25;;;0.36;78.81
71126;BME280;58785;55.566;38.058;2023-02-12T01:35:08;98949.16;;;0.25;79.46
71126;BME280;58785;55.566;38.058;2023-02-12T01:37:37;98961.03;;;0.18;80.12
71126;BME280;58785;55.566;38.058;2023-02-12T01:40:04;98969.97;;;0.15;80.35
71126;BME280;58785;55.566;38.058;2023-02-12T01:42:30;98996.75;;;-0.05;81.50
71126;BME280;58785;55.566;38.058;2023-02-12T01:47:41;98989.56;;;-0.40;83.46
71126;BME280;58785;55.566;38.058;2023-02-12T01:50:13;99007.34;;;-0.32;83.44
71126;BME280;58785;55.566;38.058;2023-02-12T01:52:43;99008.53;;;-0.49;83.14
71126;BME280;58785;55.566;38.058;2023-02-12T01:55:10;99019.75;;;-0.60;83.61
71126;BME280;58785;55.566;38.058;2023-02-12T01:57:40;99027.50;;;-0.58;83.66
71126;BME280;58785;55.566;38.058;2023-02-12T02:00:15;99045.88;;;-0.72;84.06
71126;BME280;58785;55.566;38.058;2023-02-12T02:02:43;99030.72;;;-0.80;85.10
71126;BME280;58785;55.566;38.058;2023-02-12T02:05:13;99053.00;;;-0.74;85.28
71126;BME280;58785;55.566;38.058;2023-02-12T02:07:42;99067.44;;;-0.81;84.11
71126;BME280;58785;55.566;38.058;2023-02-12T02:10:09;99072.53;;;-0.93;84.85
71126;BME280;58785;55.566;38.058;2023-02-12T02:12:35;99117.44;;;-0.99;85.20
71126;BME280;58785;55.566;38.058;2023-02-12T02:15:20;99084.75;;;-1.06;85.54
71126;BME280;58785;55.566;38.058;2023-02-12T02:18:06;99098.22;;;-1.12;84.99
71126;BME280;58785;55.566;38.058;2023-02-12T02:21:16;99119.91;;;-1.10;85.58
71126;BME280;58785;55.566;38.058;2023-02-12T02:23:54;99117.88;;;-1.19;85.01
71126;BME280;58785;55.566;38.058;2023-02-12T02:27:02;99138.72;;;-1.32;84.20
71126;BME280;58785;55.566;38.058;2023-02-12T02:32:34;99155.34;;;-1.33;84.95
71126;BME280;58785;55.566;38.058;2023-02-12T02:35:12;99163.03;;;-1.30;84.89
71126;BME280;58785;55.566;38.058;2023-02-12T02:37:48;99144.09;;;-1.48;85.42
71126;BME280;58785;55.566;38.058;2023-02-12T02:40:25;99157.16;;;-1.48;85.90
71126;BME280;58785;55.566;38.058;2023-02-12T02:43:06;99169.00;;;-1.56;86.08
71126;BME280;58785;55.566;38.058;2023-02-12T02:45:40;99176.56;;;-1.52;85.78
71126;BME280;58785;55.566;38.058;2023-02-12T02:50:34;99193.84;;;-1.49;86.28
71126;BME280;58785;55.566;38.058;2023-02-12T02:53:10;99196.94;;;-1.57;85.73
71126;BME280;58785;55.566;38.058;2023-02-12T02:55:46;99189.28;;;-1.60;86.39
71126;BME280;58785;55.566;38.058;2023-02-12T02:58:17;99208.31;;;-1.58;85.84
71126;BME280;58785;55.566;38.058;2023-02-12T03:00:54;99194.41;;;-1.58;86.16
71126;BME280;58785;55.566;38.058;2023-02-12T03:03:50;99223.44;;;-1.49;85.90
71126;BME280;58785;55.566;38.058;2023-02-12T03:06:37;99228.84;;;-1.52;85.60
71126;BME280;58785;55.566;38.058;2023-02-12T03:11:48;99232.41;;;-1.67;84.71
71126;BME280;58785;55.566;38.058;2023-02-12T03:14:23;99243.09;;;-1.71;84.26
71126;BME280;58785;55.566;38.058;2023-02-12T03:17:19;99257.25;;;-1.60;84.81
71126;BME280;58785;55.566;38.058;2023-02-12T03:19:51;99265.97;;;-1.61;84.41
71126;BME280;58785;55.566;38.058;2023-02-12T03:22:23;99250.69;;;-1.67;82.97
71126;BME280;58785;55.566;38.058;2023-02-12T03:25:32;99279.06;;;-1.61;81.43
71126;BME280;58785;55.566;38.058;2023-02-12T03:28:03;99293.25;;;-1.65;81.36
71126;BME280;58785;55.566;38.058;2023-02-12T03:30:44;99290.00;;;-1.68;80.99
71126;BME280;58785;55.566;38.058;2023-02-12T03:33:17;99301.09;;;-1.65;80.88
71126;BME280;58785;55.566;38.058;2023-02-12T03:36:18;99306.31;;;-1.65;80.70
71126;BME280;58785;55.566;38.058;2023-02-12T03:38:52;99311.63;;;-1.66;80.37
71126;BME280;58785;55.566;38.058;2023-02-12T03:41:27;99321.16;;;-1.65;81.15
71126;BME280;58785;55.566;38.058;2023-02-12T03:46:34;99329.84;;;-1.65;80.90
71126;BME280;58785;55.566;38.058;2023-02-12T03:50:16;99343.19;;;-1.69;80.95
71126;BME280;58785;55.566;38.058;2023-02-12T03:52:22;99335.50;;;-1.73;82.11
71126;BME280;58785;55.566;38.058;2023-02-12T03:54:48;99347.72;;;-1.73;81.80
71126;BME280;58785;55.566;38.058;2023-02-12T03:57:21;99355.75;;;-1.76;81.73
71126;BME280;58785;55.566;38.058;2023-02-12T03:59:49;99351.25;;;-1.88;81.44
71126;BME280;58785;55.566;38.058;2023-02-12T04:02:16;99353.56;;;-1.84;82.80
71126;BME280;58785;55.566;38.058;2023-02-12T04:04:43;99361.28;;;-1.96;82.56
71126;BME280;58785;55.566;38.058;2023-02-12T04:07:10;99364.84;;;-1.97;83.14
71126;BME280;58785;55.566;38.058;2023-02-12T04:09:36;99367.00;;;-1.90;83.49
71126;BME280;58785;55.566;38.058;2023-02-12T04:14:52;99388.75;;;-1.89;82.95
71126;BME280;58785;55.566;38.058;2023-02-12T04:28:14;99411.00;;;-1.98;82.53
71126;BME280;58785;55.566;38.058;2023-02-12T04:30:51;99429.88;;;-1.93;83.02
71126;BME280;58785;55.566;38.058;2023-02-12T04:33:21;99434.00;;;-1.89;82.77
71126;BME280;58785;55.566;38.058;2023-02-12T04:35:54;99438.03;;;-1.83;82.64
71126;BME280;58785;55.566;38.058;2023-02-12T04:38:37;99431.06;;;-1.98;81.39
71126;BME280;58785;55.566;38.058;2023-02-12T04:41:05;99445.28;;;-2.04;81.45
71126;BME280;58785;55.566;38.058;2023-02-12T04:43:34;99454.25;;;-2.08;81.12
71126;BME280;58785;55.566;38.058;2023-02-12T04:46:02;99463.81;;;-1.93;82.15
71126;BME280;58785;55.566;38.058;2023-02-12T04:48:28;99466.34;;;-1.91;81.36
71126;BME280;58785;55.566;38.058;2023-02-12T04:50:53;99468.13;;;-1.92;81.08
71126;BME280;58785;55.566;38.058;2023-02-12T04:53:19;99469.03;;;-1.93;79.95
71126;BME280;58785;55.566;38.058;2023-02-12T04:55:45;99487.44;;;-1.94;79.08
71126;BME280;58785;55.566;38.058;2023-02-12T04:58:12;99491.81;;;-1.95;78.90
71126;BME280;58785;55.566;38.058;2023-02-12T05:00:38;99496.94;;;-1.93;78.88
71126;BME280;58785;55.566;38.058;2023-02-12T05:03:04;99492.56;;;-1.93;78.83
71126;BME280;58785;55.566;38.058;2023-02-12T05:05:30;99510.00;;;-1.93;78.93
71126;BME280;58785;55.566;38.058;2023-02-12T05:07:57;99517.94;;;-1.95;78.45
71126;BME280;58785;55.566;38.058;2023-02-12T05:10:23;99537.25;;;-1.97;78.70
71126;BME280;58785;55.566;38.058;2023-02-12T05:12:52;99526.75;;;-2.13;78.83
71126;BME280;58785;55.566;38.058;2023-02-12T05:15:18;99535.03;;;-2.05;79.71
71126;BME280;58785;55.566;38.058;2023-02-12T05:17:44;99548.00;;;-2.19;78.46
71126;BME280;58785;55.566;38.058;2023-02-12T05:20:11;99548.84;;;-2.19;80.40
71126;BME280;58785;55.566;38.058;2023-02-12T05:22:36;99577.88;;;-2.25;79.70
71126;BME280;58785;55.566;38.058;2023-02-12T05:25:03;99571.88;;;-2.27;80.28
71126;BME280;58785;55.566;38.058;2023-02-12T05:27:29;99573.97;;;-2.34;79.04
71126;BME280;58785;55.566;38.058;2023-02-12T05:29:55;99602.69;;;-2.34;79.72
71126;BME280;58785;55.566;38.058;2023-02-12T05:32:21;99592.16;;;-2.32;80.20
71126;BME280;58785;55.566;38.058;2023-02-12T05:34:47;99589.16;;;-2.42;79.59
71126;BME280;58785;55.566;38.058;2023-02-12T05:37:13;99604.31;;;-2.48;80.02
71126;BME280;58785;55.566;38.058;2023-02-12T05:39:39;99602.22;;;-2.42;80.33
71126;BME280;58785;55.566;38.058;2023-02-12T05:42:04;99622.81;;;-2.36;79.71
71126;BME280;58785;55.566;38.058;2023-02-12T05:44:30;99620.97;;;-2.34;80.49
71126;BME280;58785;55.566;38.058;2023-02-12T05:46:56;99636.88;;;-2.38;79.64
71126;BME280;58785;55.566;38.058;2023-02-12T05:49:22;99643.06;;;-2.41;78.83
71126;BME280;58785;55.566;38.058;2023-02-12T05:51:49;99634.34;;;-2.57;79.17
71126;BME280;58785;55.566;38.058;2023-02-12T05:54:15;99649.28;;;-2.43;79.52
71126;BME280;58785;55.566;38.058;2023-02-12T05:56:46;99653.00;;;-2.47;79.57
71126;BME280;58785;55.566;38.058;2023-02-12T05:59:20;99645.69;;;-2.41;79.16
71126;BME280;58785;55.566;38.058;2023-02-12T06:01:47;99656.59;;;-2.33;78.58
71126;BME280;58785;55.566;38.058;2023-02-12T06:04:20;99671.50;;;-2.35;78.58
71126;BME280;58785;55.566;38.058;2023-02-12T06:06:48;99652.00;;;-2.27;79.01
71126;BME280;58785;55.566;38.058;2023-02-12T06:09:14;99674.56;;;-2.26;77.57
71126;BME280;58785;55.566;38.058;2023-02-12T06:11:41;99684.78;;;-2.39;76.36
71126;BME280;58785;55.566;38.058;2023-02-12T06:14:10;99688.53;;;-2.27;77.22
71126;BME280;58785;55.566;38.058;2023-02-12T06:16:37;99693.97;;;-2.15;77.04
71126;BME280;58785;55.566;38.058;2023-02-12T06:19:04;99710.75;;;-2.19;75.48
71126;BME280;58785;55.566;38.058;2023-02-12T06:21:30;99705.28;;;-2.14;76.22
71126;BME280;58785;55.566;38.058;2023-02-12T06:23:57;99695.66;;;-2.14;74.89
71126;BME280;58785;55.566;38.058;2023-02-12T06:26:23;99726.09;;;-2.13;74.53
71126;BME280;58785;55.566;38.058;2023-02-12T06:28:49;99723.34;;;-2.10;73.67
71126;BME280;58785;55.566;38.058;2023-02-12T06:31:36;99723.56;;;-2.14;73.73
71126;BME280;58785;55.566;38.058;2023-02-12T06:34:05;99715.81;;;-2.16;73.04
71126;BME280;58785;55.566;38.058;2023-02-12T06:36:31;99749.84;;;-2.17;73.03
71126;BME280;58785;55.566;38.058;2023-02-12T06:39:00;99749.38;;;-2.08;72.66
71126;BME280;58785;55.566;38.058;2023-02-12T06:41:26;99751.75;;;-2.04;71.66
71126;BME280;58785;55.566;38.058;2023-02-12T06:43:52;99758.06;;;-1.90;71.89
71126;BME280;58785;55.566;38.058;2023-02-12T06:46:17;99761.81;;;-1.79;71.53
71126;BME280;58785;55.566;38.058;2023-02-12T06:48:43;99774.78;;;-1.77;70.08
71126;BME280;58785;55.566;38.058;2023-02-12T06:51:12;99775.47;;;-1.74;70.46
71126;BME280;58785;55.566;38.058;2023-02-12T06:53:38;99767.97;;;-1.80;70.02
71126;BME280;58785;55.566;38.058;2023-02-12T06:56:05;99791.16;;;-1.74;69.38
71126;BME280;58785;55.566;38.058;2023-02-12T06:58:31;99764.81;;;-1.86;69.85
71126;BME280;58785;55.566;38.058;2023-02-12T07:03:38;99802.06;;;-1.65;69.80
71126;BME280;58785;55.566;38.058;2023-02-12T07:06:05;99814.00;;;-1.60;68.84
71126;BME280;58785;55.566;38.058;2023-02-12T07:08:31;99821.34;;;-1.51;68.81
71126;BME280;58785;55.566;38.058;2023-02-12T07:10:56;99818.66;;;-1.49;68.97
71126;BME280;58785;55.566;38.058;2023-02-12T07:13:22;99825.59;;;-1.48;68.63
71126;BME280;58785;55.566;38.058;2023-02-12T07:15:48;99827.66;;;-1.37;67.99
71126;BME280;58785;55.566;38.058;2023-02-12T07:18:13;99820.03;;;-1.42;68.09
71126;BME280;58785;55.566;38.058;2023-02-12T07:20:39;99832.63;;;-1.33;68.15
71126;BME280;58785;55.566;38.058;2023-02-12T07:23:04;99854.25;;;-1.29;68.23
71126;BME280;58785;55.566;38.058;2023-02-12T07:25:30;99841.22;;;-1.31;68.39
71126;BME280;58785;55.566;38.058;2023-02-12T07:27:55;99856.25;;;-1.34;68.27
71126;BME280;58785;55.566;38.058;2023-02-12T07:30:21;99831.09;;;-1.37;68.29
71126;BME280;58785;55.566;38.058;2023-02-12T07:32:46;99873.16;;;-1.41;68.64
71126;BME280;58785;55.566;38.058;2023-02-12T07:35:12;99860.47;;;-1.32;68.43
71126;BME280;58785;55.566;38.058;2023-02-12T07:37:38;99867.16;;;-1.26;68.28
71126;BME280;58785;55.566;38.058;2023-02-12T07:40:04;99870.16;;;-1.51;69.56
71126;BME280;58785;55.566;38.058;2023-02-12T07:42:30;99863.41;;;-1.55;69.34
71126;BME280;58785;55.566;38.058;2023-02-12T07:44:55;99874.56;;;-1.52;69.01
71126;BME280;58785;55.566;38.058;2023-02-12T07:47:21;99872.56;;;-1.64;68.81
71126;BME280;58785;55.566;38.058;2023-02-12T07:49:46;99880.41;;;-1.64;68.74
71126;BME280;58785;55.566;38.058;2023-02-12T07:52:12;99895.78;;;-1.40;68.23
71126;BME280;58785;55.566;38.058;2023-02-12T07:54:38;99896.31;;;-1.34;68.12
71126;BME280;58785;55.566;38.058;2023-02-12T07:57:03;99899.22;;;-1.23;68.07
71126;BME280;58785;55.566;38.058;2023-02-12T07:59:29;99907.06;;;-1.23;67.55
71126;BME280;58785;55.566;38.058;2023-02-12T08:01:54;99928.47;;;-1.32;68.18
71126;BME280;58785;55.566;38.058;2023-02-12T08:04:22;99935.41;;;-1.48;68.31
71126;BME280;58785;55.566;38.058;2023-02-12T08:06:52;99932.53;;;-1.61;69.11
71126;BME280;58785;55.566;38.058;2023-02-12T08:09:22;99927.16;;;-1.58;69.18
71126;BME280;58785;55.566;38.058;2023-02-12T08:11:47;99943.38;;;-1.51;69.39
71126;BME280;58785;55.566;38.058;2023-02-12T08:14:16;99937.41;;;-1.36;69.29
71126;BME280;58785;55.566;38.058;2023-02-12T08:16:43;99944.69;;;-1.42;68.87
71126;BME280;58785;55.566;38.058;2023-02-12T08:19:09;99961.47;;;-1.47;69.27
71126;BME280;58785;55.566;38.058;2023-02-12T08:21:35;99963.31;;;-1.49;68.64
71126;BME280;58785;55.566;38.058;2023-02-12T08:24:00;99962.84;;;-1.57;68.29
71126;BME280;58785;55.566;38.058;2023-02-12T08:26:32;99963.44;;;-1.52;67.79
71126;BME280;58785;55.566;38.058;2023-02-12T08:29:00;99984.00;;;-1.44;67.29
71126;BME280;58785;55.566;38.058;2023-02-12T08:31:31;99987.47;;;-1.43;67.01
71126;BME280;58785;55.566;38.058;2023-02-12T08:33:57;100007.13;;;-1.54;66.51
71126;BME280;58785;55.566;38.058;2023-02-12T08:36:25;100004.34;;;-1.68;66.56
71126;BME280;58785;55.566;38.058;2023-02-12T08:38:52;100001.81;;;-1.88;65.80
71126;BME280;58785;55.566;38.058;2023-02-12T08:41:20;100006.69;;;-1.99;65.32
71126;BME280;58785;55.566;38.058;2023-02-12T08:43:47;99995.75;;;-2.08;65.18
71126;BME280;58785;55.566;38.058;2023-02-12T08:46:19;100018.75;;;-1.97;65.01
71126;BME280;58785;55.566;38.058;2023-02-12T08:48:46;100008.94;;;-1.92;65.10
71126;BME280;58785;55.566;38.058;2023-02-12T08:51:14;100024.59;;;-1.92;64.35
71126;BME280;58785;55.566;38.058;2023-02-12T08:53:42;100032.88;;;-1.82;63.97
71126;BME280;58785;55.566;38.058;2023-02-12T08:56:12;100037.31;;;-1.65;63.65
71126;BME280;58785;55.566;38.058;2023-02-12T08:58:37;100024.38;;;-1.50;63.57
71126;BME280;58785;55.566;38.058;2023-02-12T09:01:04;100030.72;;;-1.55;63.69
71126;BME280;58785;55.566;38.058;2023-02-12T09:03:33;100047.94;;;-1.68;63.44
71126;BME280;58785;55.566;38.058;2023-02-12T09:06:02;100039.44;;;-1.74;63.72
71126;BME280;58785;55.566;38.058;2023-02-12T09:08:28;100056.38;;;-1.82;63.38
71126;BME280;58785;55.566;38.058;2023-02-12T09:10:54;100054.28;;;-1.93;63.33
71126;BME280;58785;55.566;38.058;2023-02-12T09:13:19;100056.38;;;-2.01;63.99
71126;BME280;58785;55.566;38.058;2023-02-12T09:15:45;100052.72;;;-1.97;63.42
71126;BME280;58785;55.566;38.058;2023-02-12T09:18:12;100060.84;;;-1.84;63.67
71126;BME280;58785;55.566;38.058;2023-02-12T09:20:41;100074.25;;;-1.92;63.11
71126;BME280;58785;55.566;38.058;2023-02-12T09:23:08;100052.06;;;-2.02;63.04
71126;BME280;58785;55.566;38.058;2023-02-12T09:25:39;100066.63;;;-1.96;63.42
71126;BME280;58785;55.566;38.058;2023-02-12T09:28:05;100069.25;;;-1.96;62.80
71126;BME280;58785;55.566;38.058;2023-02-12T09:30:30;100081.41;;;-1.95;63.26
71126;BME280;58785;55.566;38.058;2023-02-12T09:32:56;100074.31;;;-1.93;62.63
71126;BME280;58785;55.566;38.058;2023-02-12T09:35:22;100079.03;;;-2.02;63.02
71126;BME280;58785;55.566;38.058;2023-02-12T09:37:48;100077.06;;;-2.15;63.04
71126;BME280;58785;55.566;38.058;2023-02-12T09:43:18;100093.84;;;-2.21;64.00
71126;BME280;58785;55.566;38.058;2023-02-12T09:51:21;100132.34;;;-2.06;62.07
71126;BME280;58785;55.566;38.058;2023-02-12T09:53:49;100127.69;;;-2.18;62.66
71126;BME280;58785;55.566;38.058;2023-02-12T09:56:22;100114.63;;;-2.18;62.71
71126;BME280;58785;55.566;38.058;2023-02-12T09:58:51;100129.97;;;-2.10;63.11
71126;BME280;58785;55.566;38.058;2023-02-12T10:01:20;100142.16;;;-2.11;62.81
71126;BME280;58785;55.566;38.058;2023-02-12T10:03:48;100135.13;;;-2.09;62.42
71126;BME280;58785;55.566;38.058;2023-02-12T10:06:20;100138.22;;;-2.00;63.03
71126;BME280;58785;55.566;38.058;2023-02-12T10:17:22;100125.19;;;-1.63;61.77
71126;BME280;58785;55.566;38.058;2023-02-12T10:25:40;100141.94;;;-1.67;61.52
71126;BME280;58785;55.566;38.058;2023-02-12T10:28:16;100164.84;;;-1.53;61.94
71126;BME280;58785;55.566;38.058;2023-02-12T10:30:44;100162.56;;;-1.61;61.32
71126;BME280;58785;55.566;38.058;2023-02-12T10:33:17;100174.78;;;-1.80;60.37
71126;BME280;58785;55.566;38.058;2023-02-12T10:35:49;100176.19;;;-2.12;60.62
71126;BME280;58785;55.566;38.058;2023-02-12T10:38:21;100184.28;;;-2.18;61.26
71126;BME280;58785;55.566;38.058;2023-02-12T10:40:49;100178.53;;;-2.26;60.71
71126;BME280;58785;55.566;38.058;2023-02-12T10:43:15;100172.78;;;-2.35;61.08
71126;BME280;58785;55.566;38.058;2023-02-12T10:45:42;100184.16;;;-2.15;61.14
71126;BME280;58785;55.566;38.058;2023-02-12T10:48:29;100179.00;;;-2.17;60.84
71126;BME280;58785;55.566;38.058;2023-02-12T10:53:39;100191.28;;;-2.19;60.92
71126;BME280;58785;55.566;38.058;2023-02-12T10:58:57;100189.63;;;-2.21;61.62
71126;BME280;58785;55.566;38.058;2023-02-12T11:01:29;100197.06;;;-2.12;60.63
71126;BME280;58785;55.566;38.058;2023-02-12T11:03:56;100189.13;;;-2.09;61.15
71126;BME280;58785;55.566;38.058;2023-02-12T11:06:32;100201.78;;;-2.00;61.48
71126;BME280;58785;55.566;38.058;2023-02-12T11:08:58;100208.72;;;-1.99;61.80
71126;BME280;58785;55.566;38.058;2023-02-12T11:11:28;100211.81;;;-1.91;61.94
71126;BME280;58785;55.566;38.058;2023-02-12T11:13:57;100222.72;;;-1.81;61.71
71126;BME280;58785;55.566;38.058;2023-02-12T11:16:35;100222.91;;;-1.65;62.17
71126;BME280;58785;55.566;38.058;2023-02-12T11:19:06;100239.22;;;-1.21;61.34
71126;BME280;58785;55.566;38.058;2023-02-12T11:21:33;100219.94;;;-1.00;60.81
71126;BME280;58785;55.566;38.058;2023-02-12T11:24:28;100222.25;;;-0.94;59.24
71126;BME280;58785;55.566;38.058;2023-02-12T11:27:22;100236.47;;;-0.99;59.71
71126;BME280;58785;55.566;38.058;2023-02-12T11:32:31;100238.78;;;-1.31;59.99
71126;BME280;58785;55.566;38.058;2023-02-12T11:35:13;100240.84;;;-1.37;60.15
71126;BME280;58785;55.566;38.058;2023-02-12T11:37:43;100246.78;;;-1.34;60.59
71126;BME280;58785;55.566;38.058;2023-02-12T11:40:19;100244.38;;;-1.38;60.48
71126;BME280;58785;55.566;38.058;2023-02-12T11:42:55;100244.38;;;-1.38;59.67
71126;BME280;58785;55.566;38.058;2023-02-12T11:45:30;100259.16;;;-1.37;60.10
71126;BME280;58785;55.566;38.058;2023-02-12T11:47:57;100263.78;;;-1.44;60.34
71126;BME280;58785;55.566;38.058;2023-02-12T11:50:46;100269.88;;;-1.43;60.25
71126;BME280;58785;55.566;38.058;2023-02-12T11:53:20;100278.38;;;-1.38;60.24
71126;BME280;58785;55.566;38.058;2023-02-12T11:55:55;100273.91;;;-1.36;60.49
71126;BME280;58785;55.566;38.058;2023-02-12T11:58:23;100268.84;;;-1.39;60.18
71126;BME280;58785;55.566;38.058;2023-02-12T12:03:43;100290.53;;;-1.37;60.36
71126;BME280;58785;55.566;38.058;2023-02-12T12:06:37;100289.31;;;-1.49;60.23
71126;BME280;58785;55.566;38.058;2023-02-12T12:09:19;100306.16;;;-1.56;59.93
71126;BME280;58785;55.566;38.058;2023-02-12T12:14:45;100327.34;;;-1.62;60.72
71126;BME280;58785;55.566;38.058;2023-02-12T12:20:31;100335.50;;;-1.90;60.09
71126;BME280;58785;55.566;38.058;2023-02-12T12:23:09;100318.09;;;-1.91;60.06
71126;BME280;58785;55.566;38.058;2023-02-12T12:25:45;100335.38;;;-1.87;59.90
71126;BME280;58785;55.566;38.058;2023-02-12T12:28:39;100335.38;;;-1.87;60.37
71126;BME280;58785;55.566;38.058;2023-02-12T12:31:16;100335.50;;;-1.90;60.17
71126;BME280;58785;55.566;38.058;2023-02-12T12:48:29;100371.00;;;-2.07;60.58
71126;BME280;58785;55.566;38.058;2023-02-12T12:56:48;100384.66;;;-2.22;62.00
71126;BME280;58785;55.566;38.058;2023-02-12T12:59:30;100392.69;;;-2.26;61.50
71126;BME280;58785;55.566;38.058;2023-02-12T13:13:41;100400.03;;;-2.14;62.92
71126;BME280;58785;55.566;38.058;2023-02-12T13:16:30;100422.63;;;-2.13;63.37
71126;BME280;58785;55.566;38.058;2023-02-12T13:19:10;100416.69;;;-2.17;63.66
71126;BME280;58785;55.566;38.058;2023-02-12T13:21:53;100435.03;;;-2.18;63.40
71126;BME280;58785;55.566;38.058;2023-02-12T13:24:57;100440.69;;;-2.07;62.96
71126;BME280;58785;55.566;38.058;2023-02-12T13:27:29;100445.72;;;-2.03;63.69
71126;BME280;58785;55.566;38.058;2023-02-12T13:30:05;100442.50;;;-2.09;63.33
71126;BME280;58785;55.566;38.058;2023-02-12T13:32:35;100466.63;;;-2.03;63.36
71126;BME280;58785;55.566;38.058;2023-02-12T13:35:04;100461.09;;;-2.17;62.78
71126;BME280;58785;55.566;38.058;2023-02-12T13:37:39;100458.53;;;-2.18;62.82
71126;BME280;58785;55.566;38.058;2023-02-12T13:40:21;100465.41;;;-2.16;62.46
71126;BME280;58785;55.566;38.058;2023-02-12T13:42:57;100470.97;;;-2.25;62.97
71126;BME280;58785;55.566;38.058;2023-02-12T13:45:48;100480.25;;;-2.40;62.95
71126;BME280;58785;55.566;38.058;2023-02-12T13:48:23;100483.34;;;-2.53;63.30
71126;BME280;58785;55.566;38.058;2023-02-12T13:53:31;100474.31;;;-2.68;63.53
71126;BME280;58785;55.566;38.058;2023-02-12T14:01:09;100512.41;;;-2.87;64.06
71126;BME280;58785;55.566;38.058;2023-02-12T14:03:36;100490.94;;;-2.96;63.94
71126;BME280;58785;55.566;38.058;2023-02-12T14:06:13;100494.50;;;-2.98;64.94
71126;BME280;58785;55.566;38.058;2023-02-12T14:08:43;100493.84;;;-3.05;64.75
71126;BME280;58785;55.566;38.058;2023-02-12T14:11:14;100491.44;;;-3.11;65.39
71126;BME280;58785;55.566;38.058;2023-02-12T14:13:59;100513.22;;;-3.12;65.10
71126;BME280;58785;55.566;38.058;2023-02-12T14:21:58;100507.88;;;-3.34;66.17
71126;BME280;58785;55.566;38.058;2023-02-12T14:24:54;100520.84;;;-3.32;66.56
71126;BME280;58785;55.566;38.058;2023-02-12T14:27:40;100514.94;;;-3.37;66.70
71126;BME280;58785;55.566;38.058;2023-02-12T14:37:53;100526.47;;;-3.18;66.27
71126;BME280;58785;55.566;38.058;2023-02-12T14:43:36;100548.31;;;-3.21;66.99
71126;BME280;58785;55.566;38.058;2023-02-12T14:48:55;100554.50;;;-3.25;66.79
71126;BME280;58785;55.566;38.058;2023-02-12T14:51:26;100567.47;;;-3.23;66.41
71126;BME280;58785;55.566;38.058;2023-02-12T14:53:57;100565.16;;;-3.32;67.06
71126;BME280;58785;55.566;38.058;2023-02-12T14:56:23;100572.09;;;-3.31;66.81
71126;BME280;58785;55.566;38.058;2023-02-12T14:58:52;100579.06;;;-3.32;66.82
71126;BME280;58785;55.566;38.058;2023-02-12T15:01:32;100579.97;;;-3.33;66.86
71126;BME280;58785;55.566;38.058;2023-02-12T15:07:07;100575.06;;;-3.70;67.16
71126;BME280;58785;55.566;38.058;2023-02-12T15:09:38;100590.47;;;-3.64;66.90
71126;BME280;58785;55.566;38.058;2023-02-12T15:12:16;100582.88;;;-3.70;66.68
71126;BME280;58785;55.566;38.058;2023-02-12T15:14:50;100597.78;;;-3.75;67.51
71126;BME280;58785;55.566;38.058;2023-02-12T15:17:25;100615.31;;;-3.80;67.08